D/T METAR WX W/DIR W/SPE G/SPE TEMP DEWP
25/02/20 14:50 EGNS 251450Z 25020KT 9999 VCSH FEW020CB SCT025 06/00 Q0992 NOSIG VCSH WSW (250°) 23.0mph 6°C 0°C
25/02/20 14:20 EGNS 251420Z 26015KT 9999 VCSH FEW020CB SCT027 06/01 Q0993 NOSIG VCSH W (260°) 17.3mph 6°C 1°C
25/02/20 13:50 EGNS 251350Z 26019KT 9999 VCSH FEW020CB SCT025 06/01 Q0993 NOSIG VCSH W (260°) 21.9mph 6°C 1°C
25/02/20 13:20 EGNS 251320Z 26019KT 9999 FEW020 SCT028 07/01 Q0994 NOSIG W (260°) 21.9mph 7°C 1°C
25/02/20 12:50 EGNS 251250Z 27018KT 9999 VCSH FEW020CB SCT028 06/01 Q0994 NOSIG VCSH W (270°) 20.7mph 6°C 1°C
25/02/20 12:20 EGNS 251220Z 25018KT 9999 VCSH FEW020 SCT028 05/01 Q0994 NOSIG VCSH WSW (250°) 20.7mph 5°C 1°C
25/02/20 11:50 EGNS 251150Z 25017KT 9999 SCT017 SCT025 06/02 Q0995 NOSIG WSW (250°) 19.6mph 6°C 2°C
25/02/20 11:20 EGNS 251120Z 25013KT 9999 SCT017 SCT035 06/02 Q0995 NOSIG WSW (250°) 15.0mph 6°C 2°C
25/02/20 10:50 EGNS 251050Z 25017KT 9999 SCT018 05/02 Q0995 NOSIG WSW (250°) 19.6mph 5°C 2°C
25/02/20 10:20 EGNS 251020Z 26017KT 9999 FEW014 SCT020 05/01 Q0995 NOSIG W (260°) 19.6mph 5°C 1°C
25/02/20 09:50 EGNS 250950Z 25016KT 9999 FEW014 SCT018 05/02 Q0995 NOSIG WSW (250°) 18.4mph 5°C 2°C
25/02/20 09:20 EGNS 250920Z 25019KT 9999 FEW012 SCT017 05/02 Q0996 NOSIG WSW (250°) 21.9mph 5°C 2°C
25/02/20 08:50 EGNS 250850Z 26020KT 9999 FEW013 SCT017 05/01 Q0996 NOSIG W (260°) 23.0mph 5°C 1°C
25/02/20 08:20 EGNS 250820Z 26015KT 9999 SCT015 04/01 Q0996 NOSIG W (260°) 17.3mph 4°C 1°C
25/02/20 07:50 EGNS 250750Z 26020KT 9999 SCT015 04/01 Q0996 NOSIG W (260°) 23.0mph 4°C 1°C
25/02/20 07:20 EGNS 250720Z 26019KT 9999 FEW017 SCT025 04/01 Q0996 NOSIG W (260°) 21.9mph 4°C 1°C
25/02/20 06:50 EGNS 250650Z 26017KT 230V300 9999 SCT017 BKN025 04/01 Q0997 NOSIG W (260°) 19.6mph 4°C 1°C
25/02/20 06:20 EGNS 250620Z 27020KT 9999 FEW017 BKN022 04/01 Q0997 NOSIG W (270°) 23.0mph 4°C 1°C
25/02/20 05:20 EGNS 250520Z 27021KT 9999 SCT017 BKN020 04/01 Q0997 RESHRA NOSIG W (270°) 24.2mph 4°C 1°C
25/02/20 04:50 EGNS 250450Z 27016KT 250V360 9999 -SHRA SCT012 BKN017 04/02 Q0997 -SHRA W (270°) 18.4mph 4°C 2°C
25/02/20 03:50 EGNS 250350Z 25020G30KT 9999 SCT025 SCT035 05/02 Q0998 WSW (250°) 23.0mph 34.5mph 5°C 2°C
25/02/20 00:50 EGNS 250050Z 26016G26KT 230V360 9999 FEW017 SCT025 05/02 Q1001 W (260°) 18.4mph 29.9mph 5°C 2°C
24/02/20 23:50 EGNS 242350Z 26015KT 220V360 9999 FEW020 SCT042 06/01 Q1001 W (260°) 17.3mph 6°C 1°C
24/02/20 22:50 EGNS 242250Z 26016KT 9999 SCT025 06/02 Q1001 W (260°) 18.4mph 6°C 2°C
24/02/20 21:50 EGNS 242150Z 27019KT 9999 FEW025 BKN035 06/00 Q1002 NOSIG W (270°) 21.9mph 6°C 0°C
24/02/20 21:20 EGNS 242120Z 27020KT 9999 BKN022 06/01 Q1001 NOSIG W (270°) 23.0mph 6°C 1°C
24/02/20 20:50 EGNS 242050Z 27017KT 9999 BKN022 06/01 Q1001 NOSIG W (270°) 19.6mph 6°C 1°C
24/02/20 20:20 EGNS 242020Z 28021KT 9999 BKN023 06/01 Q1001 NOSIG W (280°) 24.2mph 6°C 1°C
24/02/20 19:50 EGNS 241950Z 28023G33KT 9999 FEW023 BKN027 06/01 Q1001 NOSIG W (280°) 26.5mph 38.0mph 6°C 1°C
24/02/20 19:20 EGNS 241920Z 28022KT 9999 FEW021 BKN025 06/01 Q1001 NOSIG W (280°) 25.3mph 6°C 1°C
24/02/20 18:50 EGNS 241850Z 28025KT 9999 FEW023 BKN028 07/01 Q1001 W (280°) 28.8mph 7°C 1°C
24/02/20 18:20 EGNS 241820Z 28024KT 9999 FEW023 BKN029 07/01 Q1000 NOSIG W (280°) 27.6mph 7°C 1°C
24/02/20 17:50 EGNS 241750Z 28021G35KT 9999 BKN023 07/02 Q1000 NOSIG W (280°) 24.2mph 40.3mph 7°C 2°C
24/02/20 17:20 EGNS 241720Z 28020KT 250V330 9999 SCT025 07/02 Q1000 NOSIG W (280°) 23.0mph 7°C 2°C
24/02/20 16:50 EGNS 241650Z 28022KT 9999 SCT025 07/02 Q0999 NOSIG W (280°) 25.3mph 7°C 2°C
24/02/20 16:20 EGNS 241620Z 28027G37KT 9999 SCT025 07/01 Q0998 NOSIG W (280°) 31.1mph 42.6mph 7°C 1°C
24/02/20 15:50 EGNS 241550Z 28029KT 9999 SCT025 08/01 Q0998 NOSIG W (280°) 33.4mph 8°C 1°C
24/02/20 15:20 EGNS 241520Z 27030G44KT 9999 FEW023 BKN035 08/01 Q0997 NOSIG W (270°) 34.5mph 50.6mph 8°C 1°C
24/02/20 14:50 EGNS 241450Z 29026KT 9999 FEW018 BKN035 08/02 Q0997 NOSIG WNW (290°) 29.9mph 8°C 2°C
24/02/20 14:20 EGNS 241420Z 27022KT 9999 SCT017 BKN022 08/04 Q0997 NOSIG W (270°) 25.3mph 8°C 4°C
24/02/20 13:50 EGNS 241350Z 27023G34KT 9999 FEW015 BKN022 08/05 Q0996 NOSIG W (270°) 26.5mph 39.1mph 8°C 5°C
24/02/20 13:20 EGNS 241320Z 27026KT 9999 FEW014 BKN021 09/06 Q0996 NOSIG W (270°) 29.9mph 9°C 6°C
24/02/20 12:50 EGNS 241250Z 25025G36KT 9999 FEW015 SCT035 11/07 Q0995 NOSIG WSW (250°) 28.8mph 41.4mph 11°C 7°C
24/02/20 12:20 EGNS 241220Z 25020KT 9999 FEW011 BKN023 BKN035 11/08 Q0995 NOSIG WSW (250°) 23.0mph 11°C 8°C
24/02/20 11:50 EGNS 241150Z 25018KT 9999 FEW009 SCT016 BKN024 11/09 Q0995 NOSIG WSW (250°) 20.7mph 11°C 9°C
24/02/20 11:20 EGNS 241120Z 25016KT 9999 FEW007 BKN016 10/09 Q0995 NOSIG WSW (250°) 18.4mph 10°C 9°C
24/02/20 10:50 EGNS 241050Z 25016KT 9999 FEW008 BKN027 10/09 Q0995 NOSIG WSW (250°) 18.4mph 10°C 9°C
24/02/20 10:20 EGNS 241020Z 21015KT 9999 FEW010 BKN017 10/09 Q0995 NOSIG SSW (210°) 17.3mph 10°C 9°C